createdAt,value
2023-02-19T08:04:34.584Z,97397.85
2023-02-19T08:07:15.142Z,97399.05
2023-02-19T08:10:05.815Z,97394.17
2023-02-19T08:12:55.132Z,97396.28
2023-02-19T08:15:35.974Z,97399.05
2023-02-19T08:18:15.299Z,97389.72
2023-02-19T08:21:04.641Z,97383.24
2023-02-19T08:23:40.284Z,97384.98
2023-02-19T08:26:16.101Z,97376.00
2023-02-19T08:29:08.558Z,97371.09
2023-02-19T08:32:05.044Z,97362.27
2023-02-19T08:34:53.682Z,97359.60
2023-02-19T08:37:39.030Z,97354.86
2023-02-19T08:40:19.726Z,97353.88
2023-02-19T08:42:51.351Z,97352.77
2023-02-19T08:45:24.110Z,97351.32
2023-02-19T08:48:00.448Z,97347.34
2023-02-19T08:50:36.302Z,97346.14
2023-02-19T08:53:08.056Z,97332.91
2023-02-19T08:55:44.458Z,97338.82
2023-02-19T08:58:34.374Z,97330.77
2023-02-19T09:01:10.796Z,97333.40
2023-02-19T09:03:48.055Z,97321.76
2023-02-19T09:06:23.468Z,97323.10
2023-02-19T09:09:13.709Z,97321.48
2023-02-19T09:11:50.274Z,97314.00
2023-02-19T09:14:39.584Z,97322.92
2023-02-19T09:17:17.765Z,97326.73
2023-02-19T09:19:54.737Z,97332.25
2023-02-19T09:22:28.524Z,97337.08
2023-02-19T09:24:58.883Z,97339.41
2023-02-19T09:27:32.451Z,97339.58
2023-02-19T09:30:28.992Z,97333.00
2023-02-19T09:33:16.756Z,97324.89
2023-02-19T09:36:10.081Z,97325.20
2023-02-19T09:38:40.027Z,97314.14
2023-02-19T09:41:28.955Z,97315.04
2023-02-19T09:44:21.421Z,97316.42
2023-02-19T09:47:04.509Z,97313.18
2023-02-19T09:49:50.214Z,97314.81
2023-02-19T09:52:37.117Z,97306.37
2023-02-19T09:55:26.973Z,97310.50
2023-02-19T09:58:37.477Z,97304.86
2023-02-19T10:01:38.635Z,97311.11
2023-02-19T10:04:15.794Z,97310.73
2023-02-19T10:06:47.654Z,97314.30
2023-02-19T10:09:23.925Z,97325.16
2023-02-19T10:12:18.839Z,97317.89
2023-02-19T10:14:55.942Z,97318.61
2023-02-19T10:17:37.801Z,97309.67
2023-02-19T10:20:20.180Z,97305.98
2023-02-19T10:23:16.347Z,97300.30
2023-02-19T10:25:56.802Z,97299.98
2023-02-19T10:28:55.490Z,97278.60
2023-02-19T10:31:34.008Z,97272.48
2023-02-19T10:34:23.302Z,97268.54
2023-02-19T10:37:15.947Z,97274.55
2023-02-19T10:39:56.394Z,97275.59
2023-02-19T10:42:46.341Z,97273.31
2023-02-19T10:45:53.263Z,97273.71
2023-02-19T10:48:30.710Z,97281.09
2023-02-19T10:51:21.777Z,97273.63
2023-02-19T10:54:05.982Z,97271.73
2023-02-19T10:56:45.649Z,97257.16
2023-02-19T10:59:36.840Z,97255.13
2023-02-19T11:02:21.256Z,97259.25
2023-02-19T11:05:14.907Z,97261.43
2023-02-19T11:08:05.591Z,97269.15
2023-02-19T11:10:45.243Z,97268.86
2023-02-19T11:13:46.056Z,97280.44
2023-02-19T11:16:16.886Z,97278.60
2023-02-19T11:18:57.397Z,97268.92
2023-02-19T11:21:37.465Z,97260.02
2023-02-19T11:24:34.875Z,97261.73
2023-02-19T11:27:15.530Z,97263.46
2023-02-19T11:29:49.195Z,97261.27
2023-02-19T11:32:42.828Z,97258.56
2023-02-19T11:35:25.392Z,97247.52
2023-02-19T11:38:15.523Z,97250.14
2023-02-19T11:41:11.663Z,97244.19
2023-02-19T11:44:30.469Z,97240.52
2023-02-19T11:47:31.705Z,97240.48
2023-02-19T11:50:48.998Z,97238.04
2023-02-19T11:53:34.570Z,97234.95
2023-02-19T11:56:36.573Z,97236.34
2023-02-19T11:59:48.196Z,97231.13
2023-02-19T12:02:57.647Z,97227.79
2023-02-19T12:06:13.457Z,97235.90
2023-02-19T12:09:03.036Z,97227.22
2023-02-19T12:12:24.455Z,97230.17
2023-02-19T12:15:20.265Z,97235.44
2023-02-19T12:18:15.998Z,97237.77
2023-02-19T12:21:05.875Z,97230.50
2023-02-19T12:24:16.485Z,97223.07
2023-02-19T12:27:21.636Z,97225.55
2023-02-19T12:30:17.166Z,97220.95
2023-02-19T12:33:09.517Z,97216.73
2023-02-19T12:36:06.597Z,97222.59
2023-02-19T12:38:56.210Z,97219.83
2023-02-19T12:41:32.648Z,97243.42
2023-02-19T12:44:32.136Z,97229.75
2023-02-19T12:47:07.074Z,97227.74
2023-02-19T12:49:59.109Z,97235.87
2023-02-19T12:52:41.185Z,97244.05
2023-02-19T12:55:39.974Z,97243.95
2023-02-19T12:58:40.808Z,97248.70
2023-02-19T13:01:26.640Z,97251.45
2023-02-19T13:04:46.367Z,97245.73
2023-02-19T13:07:51.179Z,97240.01
2023-02-19T13:10:57.355Z,97245.20
2023-02-19T13:13:49.310Z,97240.21
2023-02-19T13:16:30.601Z,97241.92
2023-02-19T13:19:11.760Z,97242.52
2023-02-19T13:22:22.332Z,97245.48
2023-02-19T13:24:58.742Z,97242.44
2023-02-19T13:27:59.459Z,97236.23
2023-02-19T13:30:53.372Z,97234.81
2023-02-19T13:34:09.178Z,97236.98
2023-02-19T13:36:48.853Z,97228.52
2023-02-19T13:39:31.391Z,97217.16
2023-02-19T13:42:40.145Z,97219.21
2023-02-19T13:45:28.393Z,97210.44
2023-02-19T13:48:38.478Z,97207.26
2023-02-19T13:51:24.086Z,97197.62
2023-02-19T13:54:14.643Z,97187.58
2023-02-19T13:57:18.525Z,97179.50
2023-02-19T14:00:02.323Z,97178.31
2023-02-19T14:03:38.179Z,97184.63
2023-02-19T14:06:17.445Z,97195.48
2023-02-19T14:09:00.424Z,97198.52
2023-02-19T14:12:35.776Z,97189.04
2023-02-19T14:15:49.687Z,97186.14
2023-02-19T14:18:50.460Z,97178.00
2023-02-19T14:21:34.425Z,97172.36
2023-02-19T14:24:25.886Z,97171.23
2023-02-19T14:27:06.170Z,97162.46
2023-02-19T14:29:58.814Z,97162.52
2023-02-19T14:32:36.320Z,97161.23
2023-02-19T14:35:38.281Z,97157.52
2023-02-19T14:38:53.700Z,97158.91
2023-02-19T14:41:30.144Z,97158.22
2023-02-19T14:44:18.781Z,97151.61
2023-02-19T14:47:09.634Z,97147.92
2023-02-19T14:49:54.665Z,97142.34
2023-02-19T14:53:00.973Z,97132.61
2023-02-19T14:56:00.518Z,97122.41
2023-02-19T14:58:40.804Z,97122.72
2023-02-19T15:01:34.723Z,97122.07
2023-02-19T15:04:31.566Z,97109.27
2023-02-19T15:07:21.676Z,97102.02
2023-02-19T15:10:05.887Z,97095.52
2023-02-19T15:13:17.532Z,97092.48
2023-02-19T15:15:49.802Z,97086.47
2023-02-19T15:18:25.446Z,97075.58
2023-02-19T15:21:37.554Z,97078.06
2023-02-19T15:24:18.212Z,97065.11
2023-02-19T15:26:56.716Z,97069.45
2023-02-19T15:29:53.469Z,97070.52
2023-02-19T15:32:28.572Z,97077.75
2023-02-19T15:35:04.684Z,97087.60
2023-02-19T15:37:40.622Z,97098.78
2023-02-19T15:40:33.184Z,97119.47
2023-02-19T15:43:37.900Z,97135.40
2023-02-19T15:46:29.511Z,97153.17
2023-02-19T15:49:33.305Z,97164.89
2023-02-19T15:52:31.103Z,97175.28
2023-02-19T15:55:14.055Z,97172.79
2023-02-19T15:58:51.916Z,97173.67
2023-02-19T16:01:38.286Z,97180.77
2023-02-19T16:04:22.485Z,97172.36
2023-02-19T16:06:59.845Z,97175.84
2023-02-19T16:09:42.540Z,97185.37
2023-02-19T16:12:24.988Z,97172.09
2023-02-19T16:15:13.929Z,97161.06
2023-02-19T16:17:47.860Z,97164.01
2023-02-19T16:20:40.589Z,97167.02
2023-02-19T16:23:27.393Z,97173.50
2023-02-19T16:26:03.243Z,97177.86
2023-02-19T16:28:59.019Z,97182.55
2023-02-19T16:31:37.431Z,97174.27
2023-02-19T16:34:40.185Z,97161.11
2023-02-19T16:37:31.987Z,97136.94
2023-02-19T16:40:57.110Z,97130.50
2023-02-19T16:43:42.683Z,97123.69
2023-02-19T16:46:13.793Z,97122.44
2023-02-19T16:49:11.665Z,97129.92
2023-02-19T16:51:46.401Z,97136.95
2023-02-19T16:54:18.996Z,97145.13
2023-02-19T16:56:47.348Z,97142.26
2023-02-19T16:59:36.244Z,97142.58
2023-02-19T17:02:26.186Z,97156.92
2023-02-19T17:05:03.537Z,97156.06
2023-02-19T17:07:42.438Z,97166.70
2023-02-19T17:10:31.259Z,97196.97
2023-02-19T17:13:03.313Z,97189.17
2023-02-19T17:15:54.641Z,97192.66
2023-02-19T17:18:29.639Z,97188.70
2023-02-19T17:21:18.366Z,97190.73
2023-02-19T17:24:09.227Z,97194.25
2023-02-19T17:26:43.492Z,97200.73
2023-02-19T17:29:35.417Z,97203.86
2023-02-19T17:32:15.307Z,97203.17
2023-02-19T17:34:49.784Z,97197.71
2023-02-19T17:37:31.844Z,97197.29
2023-02-19T17:40:04.723Z,97193.66
2023-02-19T17:42:39.933Z,97193.73
2023-02-19T17:45:12.630Z,97193.79
